Time;durP1;ratioP1;P1;durP2;ratioP2;P2;SDS_P1;SDS_P2;PMS_P1;PMS_P2;Temp;Humidity;BMP_temperature;BMP_pressure;BME280_temperature;BME280_humidity;BME280_pressure;Samples;Min_cycle;Max_cycle;Signal;HPM_P1;HPM_P2
2022/12/04 00:00:43;;;;;;;65.90;27.33;;;;;;;0.70;89.60;100941.63;5058963;28;20316;-80
2022/12/04 00:03:10;;;;;;;69.20;27.87;;;;;;;0.58;90.24;100943.84;5059082;28;20602;-80
2022/12/04 00:05:36;;;;;;;63.07;26.53;;;;;;;0.64;90.04;100920.91;5058778;28;20218;-81
2022/12/04 00:08:03;;;;;;;61.80;27.07;;;;;;;0.67;89.84;100933.81;5058218;28;20236;-81
2022/12/04 00:10:31;;;;;;;68.93;27.83;;;;;;;0.72;89.67;100936.53;5058778;28;20214;-82
2022/12/04 00:12:58;;;;;;;67.93;27.20;;;;;;;0.72;90.06;100933.97;5058545;28;20205;-80
2022/12/04 00:15:24;;;;;;;62.73;25.40;;;;;;;0.66;90.53;100941.50;5058602;28;20231;-81
2022/12/04 00:17:51;;;;;;;60.27;26.97;;;;;;;0.70;89.45;100939.06;5059389;28;20230;-81
2022/12/04 00:20:18;;;;;;;64.87;26.10;;;;;;;0.68;90.01;100947.56;5058616;28;20218;-81
2022/12/04 00:22:44;;;;;;;66.33;25.97;;;;;;;0.69;89.33;100950.13;5058863;28;20609;-81
2022/12/04 00:25:11;;;;;;;61.13;26.87;;;;;;;0.74;89.53;100953.72;5058605;28;20202;-81
2022/12/04 00:27:38;;;;;;;62.57;26.37;;;;;;;0.72;89.88;100947.66;5058173;28;20299;-82
2022/12/04 00:30:06;;;;;;;59.63;26.50;;;;;;;0.75;89.35;100958.06;5057918;28;20703;-82
2022/12/04 00:32:33;;;;;;;60.13;25.47;;;;;;;0.64;89.33;100949.16;5058891;28;20216;-80
2022/12/04 00:34:59;;;;;;;58.57;25.03;;;;;;;0.62;90.01;100944.81;5060355;28;20225;-82
2022/12/04 00:37:26;;;;;;;63.07;26.40;;;;;;;0.64;90.08;100941.44;5058927;28;20233;-80
2022/12/04 00:39:52;;;;;;;60.23;27.57;;;;;;;0.65;89.65;100929.47;5057032;28;20220;-80
2022/12/04 00:42:19;;;;;;;66.10;25.43;;;;;;;0.69;89.75;100936.44;5056496;28;20211;-81
2022/12/04 00:44:46;;;;;;;63.70;26.00;;;;;;;0.62;90.43;100932.81;5055745;28;20217;-79
2022/12/04 00:47:13;;;;;;;68.20;27.47;;;;;;;0.59;90.77;100923.34;5056777;28;20233;-81
2022/12/04 00:49:39;;;;;;;72.47;27.13;;;;;;;0.62;90.50;100909.69;5056713;28;20212;-80
2022/12/04 00:52:06;;;;;;;65.73;26.53;;;;;;;0.70;90.22;100915.06;5073010;23;20239;-77
2022/12/04 00:54:32;;;;;;;78.03;27.90;;;;;;;0.68;91.28;100904.75;5063830;28;20198;-77
2022/12/04 00:56:59;;;;;;;67.57;25.70;;;;;;;0.77;91.20;100901.53;5059766;28;20698;-77
2022/12/04 00:59:25;;;;;;;73.50;28.10;;;;;;;0.83;92.93;100873.44;5059491;28;20202;-77
2022/12/04 01:01:53;;;;;;;73.67;27.17;;;;;;;0.84;93.22;100834.09;5058956;28;20204;-76
2022/12/04 01:04:20;;;;;;;66.43;25.43;;;;;;;0.85;93.45;100834.97;5056734;28;20205;-77
2022/12/04 01:06:47;;;;;;;77.97;28.10;;;;;;;0.88;93.52;100832.47;5041537;28;20571;-77
2022/12/04 01:09:13;;;;;;;65.17;25.33;;;;;;;0.85;92.25;100834.97;5042058;28;20202;-77
2022/12/04 01:11:40;;;;;;;67.10;26.20;;;;;;;0.82;92.49;100842.59;5042130;28;20205;-77
2022/12/04 01:14:06;;;;;;;72.03;25.73;;;;;;;0.81;92.42;100840.84;5040687;28;20205;-76
2022/12/04 01:16:35;;;;;;;77.73;27.20;;;;;;;0.85;92.12;100851.22;5040251;28;20233;-77
2022/12/04 01:19:04;;;;;;;71.47;24.97;;;;;;;0.74;93.17;100832.09;5033090;28;20209;-77
2022/12/04 01:21:30;;;;;;;65.23;24.43;;;;;;;0.83;94.27;100795.50;5030817;28;20703;-77
2022/12/04 01:23:57;;;;;;;66.87;25.83;;;;;;;0.93;94.39;100776.91;5064828;28;20215;-77
2022/12/04 01:26:24;;;;;;;61.60;24.43;;;;;;;0.95;93.75;100776.16;5059322;28;20205;-77
2022/12/04 01:28:50;;;;;;;64.43;24.50;;;;;;;0.99;95.19;100759.06;5050897;28;20207;-77
2022/12/04 01:31:19;;;;;;;63.77;24.47;;;;;;;0.96;94.80;100746.16;5051144;28;20225;-77
2022/12/04 01:33:46;;;;;;;59.70;24.97;;;;;;;0.92;93.47;100777.75;5051174;28;20202;-77
2022/12/04 01:36:16;;;;;;;66.63;24.03;;;;;;;0.86;92.63;100793.88;5051322;28;20249;-77
2022/12/04 01:38:43;;;;;;;64.27;24.73;;;;;;;0.86;92.87;100800.72;5051210;28;20206;-77
2022/12/04 01:41:11;;;;;;;59.73;22.87;;;;;;;0.82;92.41;100806.63;5051204;28;20213;-77
2022/12/04 01:43:39;;;;;;;62.70;23.67;;;;;;;0.84;92.84;100815.25;5051337;28;20202;-77
2022/12/04 01:46:07;;;;;;;64.57;25.20;;;;;;;0.89;94.07;100800.78;5051033;28;20560;-77
2022/12/04 01:48:37;;;;;;;51.33;23.77;;;;;;;0.89;92.21;100800.78;5051378;28;20289;-77
2022/12/04 01:51:08;;;;;;;59.83;23.90;;;;;;;0.82;92.06;100812.63;5051092;28;20257;-77
2022/12/04 01:53:40;;;;;;;67.10;23.93;;;;;;;0.78;93.64;100813.38;5051034;28;20597;-77
2022/12/04 01:56:07;;;;;;;62.10;24.13;;;;;;;0.83;94.11;100800.63;5051110;28;20233;-75
2022/12/04 01:58:39;;;;;;;51.33;22.80;;;;;;;0.84;93.00;100804.97;5051104;28;20229;-75
2022/12/04 02:01:07;;;;;;;55.33;23.10;;;;;;;0.85;92.75;100804.13;5053544;28;20211;-77
2022/12/04 02:03:34;;;;;;;63.90;23.63;;;;;;;0.79;93.26;100812.53;5054643;28;20208;-76
2022/12/04 02:06:00;;;;;;;54.00;23.57;;;;;;;0.83;92.70;100823.75;5054655;28;20206;-77
2022/12/04 02:08:27;;;;;;;54.70;22.63;;;;;;;0.85;92.35;100829.81;5054455;28;20783;-77
2022/12/04 02:11:05;;;;;;;61.33;24.00;;;;;;;0.88;91.56;100841.06;5054707;28;20666;-77
2022/12/04 02:13:40;;;;;;;52.60;21.00;;;;;;;0.88;91.54;100851.34;5054797;28;20201;-77
2022/12/04 02:16:19;;;;;;;56.47;22.43;;;;;;;0.90;92.75;100835.97;5054571;28;20229;-77
2022/12/04 02:18:54;;;;;;;54.83;22.90;;;;;;;0.88;92.02;100835.06;5054509;28;20214;-78
2022/12/04 02:21:30;;;;;;;54.23;22.60;;;;;;;0.89;92.70;100829.97;5054124;28;20214;-77
2022/12/04 02:24:10;;;;;;;58.93;22.87;;;;;;;0.87;93.17;100825.59;5054467;28;20189;-77
2022/12/04 02:26:49;;;;;;;61.23;24.20;;;;;;;0.88;93.17;100809.34;5054343;28;20244;-78
2022/12/04 02:29:26;;;;;;;63.00;23.33;;;;;;;0.89;93.19;100809.41;5053934;28;20676;-78
2022/12/04 02:31:59;;;;;;;51.73;22.97;;;;;;;0.90;92.98;100800.84;5053880;28;20201;-77
2022/12/04 02:34:29;;;;;;;55.00;23.00;;;;;;;0.91;91.95;100810.31;5054042;28;20217;-77
2022/12/04 02:37:00;;;;;;;55.00;22.93;;;;;;;0.94;92.93;100809.50;5053989;28;20234;-78
2022/12/04 02:39:33;;;;;;;51.60;23.27;;;;;;;0.92;92.33;100813.75;5054039;28;20240;-77
2022/12/04 02:42:06;;;;;;;50.90;21.80;;;;;;;0.90;92.26;100816.25;5053739;28;20205;-77
2022/12/04 02:44:37;;;;;;;51.03;22.50;;;;;;;0.92;91.99;100819.75;5053972;28;20202;-77
2022/12/04 02:47:09;;;;;;;50.50;21.57;;;;;;;0.91;92.25;100827.41;5053772;28;20236;-77
2022/12/04 02:49:41;;;;;;;47.63;21.03;;;;;;;0.90;92.46;100828.25;5053857;28;20214;-76
2022/12/04 02:52:11;;;;;;;49.80;21.70;;;;;;;0.90;93.49;100815.41;5053535;28;20224;-77
2022/12/04 02:54:42;;;;;;;45.57;20.37;;;;;;;0.93;93.11;100808.66;5053689;28;20228;-78
2022/12/04 02:57:13;;;;;;;47.20;20.33;;;;;;;0.96;92.33;100797.56;5053777;28;20233;-77
2022/12/04 02:59:43;;;;;;;44.47;19.97;;;;;;;0.97;93.04;100804.44;5053790;28;20212;-77
2022/12/04 03:02:15;;;;;;;42.70;21.27;;;;;;;0.97;93.01;100801.84;5053552;28;20212;-77
2022/12/04 03:04:44;;;;;;;48.33;20.47;;;;;;;0.98;93.35;100794.19;5053584;28;20205;-77
2022/12/04 03:07:14;;;;;;;48.57;20.80;;;;;;;0.94;93.29;100794.09;5053219;28;20256;-77
2022/12/04 03:09:45;;;;;;;42.43;20.03;;;;;;;0.95;92.52;100804.41;5053745;28;20206;-77
2022/12/04 03:12:16;;;;;;;47.40;21.23;;;;;;;0.97;92.03;100813.03;5052162;28;20688;-77
2022/12/04 03:14:50;;;;;;;37.67;18.97;;;;;;;0.93;92.06;100810.31;5053468;28;20208;-76
2022/12/04 03:17:29;;;;;;;42.03;21.53;;;;;;;0.91;92.52;100804.28;5053093;28;20604;-77
2022/12/04 03:19:59;;;;;;;49.20;21.83;;;;;;;0.90;93.11;100785.44;5053170;28;20216;-76
2022/12/04 03:22:27;;;;;;;52.20;21.80;;;;;;;0.91;93.38;100778.56;5053325;28;20211;-76
2022/12/04 03:24:55;;;;;;;45.33;21.20;;;;;;;0.91;92.63;100781.16;5053097;28;20679;-76
2022/12/04 03:27:30;;;;;;;47.33;21.93;;;;;;;0.91;92.72;100774.31;5053147;28;20222;-78
2022/12/04 03:30:03;;;;;;;45.20;19.93;;;;;;;0.94;93.22;100774.38;5052773;28;20215;-76
2022/12/04 03:32:34;;;;;;;46.73;20.90;;;;;;;0.94;92.92;100774.38;5053035;28;20206;-77
2022/12/04 03:35:05;;;;;;;50.17;20.93;;;;;;;0.97;93.57;100765.88;5052977;28;20209;-76
2022/12/04 03:37:39;;;;;;;48.27;21.50;;;;;;;1.02;93.39;100748.03;5052810;28;20241;-76
2022/12/04 03:40:15;;;;;;;47.10;22.33;;;;;;;0.97;93.92;100751.34;5052524;28;20210;-77
2022/12/04 03:42:46;;;;;;;55.03;23.07;;;;;;;0.95;93.72;100760.72;5053035;28;20205;-76
2022/12/04 03:45:21;;;;;;;54.47;22.77;;;;;;;0.99;92.92;100751.38;5052899;28;20206;-76
2022/12/04 03:47:55;;;;;;;46.77;22.33;;;;;;;1.04;93.16;100764.34;5052630;28;20236;-77
2022/12/04 03:50:29;;;;;;;46.40;22.63;;;;;;;0.98;92.50;100776.22;5052278;28;20281;-76
2022/12/04 03:53:02;;;;;;;51.47;23.50;;;;;;;0.93;93.54;100782.06;5052546;28;20217;-77
2022/12/04 03:55:35;;;;;;;48.77;22.87;;;;;;;0.93;92.75;100782.06;5052591;28;20204;-76
2022/12/04 03:58:07;;;;;;;51.47;23.83;;;;;;;0.99;94.34;100774.50;5052605;28;20232;-76
2022/12/04 04:00:39;;;;;;;51.80;23.43;;;;;;;1.03;94.04;100763.50;5052172;28;20214;-76
2022/12/04 04:03:09;;;;;;;54.13;24.17;;;;;;;0.99;92.87;100779.63;5052247;28;20221;-76
2022/12/04 04:05:40;;;;;;;50.33;23.70;;;;;;;1.02;92.67;100779.72;5052452;28;20202;-76
2022/12/04 04:08:29;;;;;;;50.10;23.93;;;;;;;0.99;93.33;100782.22;5052422;28;20366;-76
2022/12/04 04:11:02;;;;;;;49.33;23.77;;;;;;;0.99;93.06;100783.09;5052121;28;20205;-76
2022/12/04 04:24:52;;;;;;;49.90;24.47;;;;;;;1.06;92.83;100784.13;5052234;28;20327;-77
2022/12/04 04:27:19;;;;;;;58.93;25.50;;;;;;;1.05;92.60;100787.53;5051989;28;20225;-77
2022/12/04 04:29:45;;;;;;;48.80;25.13;;;;;;;1.06;92.70;100783.25;5051517;28;20205;-76
2022/12/04 04:32:19;;;;;;;57.47;25.37;;;;;;;1.09;93.64;100784.22;5051919;28;20232;-76
2022/12/04 04:34:52;;;;;;;54.47;26.03;;;;;;;1.09;93.16;100773.94;5052052;28;20217;-76
2022/12/04 04:37:29;;;;;;;55.90;25.20;;;;;;;1.06;93.55;100776.41;5051750;28;20226;-77
2022/12/04 04:40:00;;;;;;;53.20;26.37;;;;;;;1.11;92.92;100779.97;5052152;28;20296;-77
2022/12/04 04:42:33;;;;;;;58.90;26.30;;;;;;;1.08;93.35;100781.59;5051998;28;20205;-78
2022/12/04 04:45:05;;;;;;;57.87;26.87;;;;;;;1.08;93.02;100785.03;5051999;28;20578;-77
2022/12/04 04:47:40;;;;;;;52.57;24.70;;;;;;;1.08;93.95;100774.75;5051894;28;20228;-77
2022/12/04 04:50:10;;;;;;;58.13;26.07;;;;;;;1.11;94.34;100773.94;5051453;28;20701;-77
2022/12/04 04:52:39;;;;;;;52.73;25.17;;;;;;;1.16;93.71;100765.50;5051448;28;20225;-76
2022/12/04 04:55:07;;;;;;;64.57;27.23;;;;;;;1.17;94.34;100762.13;5051864;28;20206;-76
2022/12/04 04:57:35;;;;;;;54.10;25.90;;;;;;;1.19;93.32;100764.75;5051655;28;20234;-77
2022/12/04 05:00:04;;;;;;;57.80;26.10;;;;;;;1.21;92.73;100777.59;5051471;28;20202;-77
2022/12/04 05:02:32;;;;;;;56.03;26.07;;;;;;;1.15;92.92;100780.91;5051443;28;20220;-77
2022/12/04 05:04:59;;;;;;;64.43;27.53;;;;;;;1.14;92.67;100785.16;5051503;28;20430;-77
2022/12/04 05:07:26;;;;;;;51.93;24.70;;;;;;;1.14;93.35;100780.03;5051454;28;20598;-77
2022/12/04 05:09:52;;;;;;;61.77;27.67;;;;;;;1.16;93.02;100778.38;5051497;28;20392;-77
2022/12/04 05:12:19;;;;;;;62.43;27.03;;;;;;;1.11;93.62;100779.06;5051412;28;20206;-76
2022/12/04 05:14:46;;;;;;;53.93;27.00;;;;;;;1.16;93.54;100777.50;5051531;28;20209;-75
2022/12/04 05:17:13;;;;;;;59.77;27.63;;;;;;;1.15;93.39;100768.94;5051318;28;20259;-76
2022/12/04 05:19:55;;;;;;;68.27;29.57;;;;;;;1.18;93.65;100775.84;5051297;28;20206;-77
2022/12/04 05:22:25;;;;;;;59.17;26.80;;;;;;;1.22;93.38;100780.22;5051528;28;20258;-77
2022/12/04 05:24:52;;;;;;;61.70;27.37;;;;;;;1.22;92.61;100795.66;5051410;28;20216;-76
2022/12/04 05:27:19;;;;;;;57.63;27.33;;;;;;;1.23;92.97;100804.22;5051783;28;20244;-76
2022/12/04 05:29:45;;;;;;;62.40;29.13;;;;;;;1.21;93.36;100799.06;5050973;28;20206;-77
2022/12/04 05:32:12;;;;;;;56.87;28.70;;;;;;;1.21;93.43;100801.66;5051254;28;20511;-77
2022/12/04 05:34:39;;;;;;;64.63;28.37;;;;;;;1.15;93.51;100801.47;5051815;28;20218;-78
2022/12/04 05:37:05;;;;;;;67.60;28.53;;;;;;;1.21;93.46;100793.03;5055072;28;20233;-77
2022/12/04 05:39:33;;;;;;;63.60;28.10;;;;;;;1.24;93.19;100805.97;5055154;28;20208;-77
2022/12/04 05:42:00;;;;;;;70.03;30.37;;;;;;;1.23;92.75;100801.66;5054751;28;20201;-77
2022/12/04 05:44:26;;;;;;;59.37;27.37;;;;;;;1.24;93.40;100788.84;5055246;28;20201;-77
2022/12/04 05:46:53;;;;;;;65.57;29.83;;;;;;;1.24;93.40;100783.69;5055030;28;20225;-76
2022/12/04 05:49:19;;;;;;;56.20;28.03;;;;;;;1.26;93.72;100788.88;5055070;28;20215;-77
2022/12/04 05:51:46;;;;;;;65.63;28.67;;;;;;;1.20;93.20;100789.59;5054515;28;20213;-77
2022/12/04 05:54:12;;;;;;;61.40;27.43;;;;;;;1.21;93.73;100783.66;5054765;28;20207;-77
2022/12/04 05:56:40;;;;;;;69.20;29.63;;;;;;;1.17;93.55;100792.13;5054510;28;20230;-77
2022/12/04 05:59:06;;;;;;;65.57;29.03;;;;;;;1.23;92.97;100796.50;5054970;28;20581;-77
2022/12/04 06:01:33;;;;;;;66.20;29.57;;;;;;;1.23;92.62;100799.09;5054527;28;20202;-77
2022/12/04 06:04:00;;;;;;;70.17;29.87;;;;;;;1.21;93.32;100798.19;5054724;28;20213;-77
2022/12/04 06:06:26;;;;;;;66.57;30.50;;;;;;;1.24;93.25;100803.41;5054496;28;20209;-76
2022/12/04 06:08:55;;;;;;;58.67;28.43;;;;;;;1.24;93.09;100805.97;5054575;28;20205;-77
2022/12/04 06:11:24;;;;;;;67.00;30.17;;;;;;;1.25;93.45;100798.31;5054153;28;20216;-77
2022/12/04 06:13:52;;;;;;;62.47;29.53;;;;;;;1.25;93.13;100806.03;5054696;28;20209;-76
2022/12/04 06:16:20;;;;;;;58.10;27.93;;;;;;;1.23;93.21;100806.78;5054356;28;20229;-77
2022/12/04 06:18:49;;;;;;;59.93;28.53;;;;;;;1.25;92.74;100811.16;5054521;28;20205;-78
2022/12/04 06:21:15;;;;;;;59.97;28.23;;;;;;;1.28;93.00;100818.06;5054241;28;20268;-77
2022/12/04 06:23:42;;;;;;;66.77;30.03;;;;;;;1.30;93.04;100819.84;5054269;28;20209;-78
2022/12/04 06:26:09;;;;;;;63.83;30.23;;;;;;;1.24;93.06;100817.13;5054135;28;20714;-77
2022/12/04 06:28:36;;;;;;;61.97;28.73;;;;;;;1.30;92.75;100822.41;5053974;28;20206;-77
2022/12/04 06:31:06;;;;;;;65.60;29.97;;;;;;;1.29;92.30;100827.50;5054004;28;20205;-77
2022/12/04 06:33:33;;;;;;;61.30;30.70;;;;;;;1.22;92.92;100826.50;5054197;28;20210;-77
2022/12/04 06:36:00;;;;;;;63.03;28.30;;;;;;;1.22;93.52;100808.50;5054022;28;20209;-76
2022/12/04 06:38:26;;;;;;;63.37;29.50;;;;;;;1.22;94.04;100803.38;5053982;28;20702;-76
2022/12/04 06:40:53;;;;;;;66.67;29.87;;;;;;;1.27;93.47;100801.78;5053878;28;20206;-76
2022/12/04 06:43:19;;;;;;;64.93;28.97;;;;;;;1.26;93.10;100801.75;5053871;28;20209;-77
2022/12/04 06:45:46;;;;;;;65.23;29.10;;;;;;;1.32;93.08;100804.47;5053764;28;20210;-76
2022/12/04 06:48:13;;;;;;;71.20;30.90;;;;;;;1.32;93.40;100805.31;5053851;28;20225;-76
2022/12/04 06:50:40;;;;;;;61.53;29.90;;;;;;;1.33;93.84;100794.22;5053541;28;20214;-77
2022/12/04 06:53:06;;;;;;;64.87;29.03;;;;;;;1.35;93.10;100802.84;5068144;22;20283;-81
2022/12/04 06:55:33;;;;;;;63.03;29.57;;;;;;;1.39;93.24;100798.66;5057719;28;20212;-81
2022/12/04 06:57:59;;;;;;;63.27;29.87;;;;;;;1.39;92.37;100814.94;5056657;28;20610;-81
2022/12/04 07:00:26;;;;;;;61.50;28.53;;;;;;;1.39;92.82;100824.38;5056951;28;20210;-81
2022/12/04 07:02:52;;;;;;;61.37;29.53;;;;;;;1.32;92.82;100840.47;5056377;28;20308;-81
2022/12/04 07:05:20;;;;;;;62.47;28.67;;;;;;;1.36;93.11;100825.13;5057243;28;20209;-81
2022/12/04 07:07:46;;;;;;;69.87;29.43;;;;;;;1.38;92.74;100825.19;5056869;28;20210;-80
2022/12/04 07:10:13;;;;;;;64.27;30.23;;;;;;;1.33;92.71;100832.78;5055778;28;20207;-80
2022/12/04 07:12:39;;;;;;;61.57;28.73;;;;;;;1.32;92.53;100830.19;5056447;28;20656;-81
2022/12/04 07:15:06;;;;;;;59.10;27.47;;;;;;;1.34;92.44;100831.09;5056402;28;20216;-80
2022/12/04 07:17:33;;;;;;;69.37;31.87;;;;;;;1.37;93.41;100832.03;5056351;28;20963;-81
2022/12/04 07:19:59;;;;;;;67.00;30.13;;;;;;;1.38;92.85;100836.34;5056501;28;20213;-79
2022/12/04 07:22:28;;;;;;;59.87;28.57;;;;;;;1.38;92.31;100846.63;5057580;28;20253;-81
2022/12/04 07:24:54;;;;;;;66.83;30.63;;;;;;;1.37;92.64;100844.03;5057234;28;20230;-80
2022/12/04 07:27:20;;;;;;;66.07;31.23;;;;;;;1.39;91.80;100850.09;5057477;28;20684;-81
2022/12/04 07:29:47;;;;;;;65.57;28.67;;;;;;;1.41;92.77;100847.53;5057208;28;20212;-79
2022/12/04 07:32:13;;;;;;;58.37;28.90;;;;;;;1.42;92.37;100849.28;5056818;28;20217;-81
2022/12/04 07:34:40;;;;;;;57.47;29.23;;;;;;;1.41;91.57;100852.69;5056648;28;20683;-81
2022/12/04 07:37:06;;;;;;;61.30;29.03;;;;;;;1.34;92.21;100862.81;5057072;28;20225;-82
2022/12/04 07:39:34;;;;;;;61.67;29.87;;;;;;;1.35;92.32;100854.28;5056879;28;20217;-81
2022/12/04 07:42:00;;;;;;;59.30;27.53;;;;;;;1.32;91.77;100864.47;5056018;28;20775;-82
2022/12/04 07:44:27;;;;;;;60.57;28.27;;;;;;;1.26;92.72;100853.19;5056888;28;20206;-82
2022/12/04 07:46:53;;;;;;;56.13;27.77;;;;;;;1.21;92.87;100836.75;5057341;28;20210;-81
2022/12/04 07:49:20;;;;;;;57.97;28.83;;;;;;;1.20;92.82;100833.31;5056669;28;20202;-81
2022/12/04 07:51:46;;;;;;;57.30;28.13;;;;;;;1.22;92.87;100821.38;5055657;28;20221;-81
2022/12/04 07:54:12;;;;;;;60.30;29.98;;;;;;;1.25;92.50;100815.41;5055747;28;20802;-81
2022/12/04 07:56:40;;;;;;;57.63;28.93;;;;;;;1.28;92.38;100821.50;5055213;28;20205;-81
2022/12/04 07:59:06;;;;;;;64.30;27.90;;;;;;;1.33;93.19;100829.38;5055070;28;20209;-81
2022/12/04 08:01:33;;;;;;;62.13;30.07;;;;;;;1.30;93.37;100830.13;5056419;28;20218;-81
2022/12/04 08:04:02;;;;;;;69.80;30.37;;;;;;;1.30;93.43;100822.41;5061961;28;20210;-81
2022/12/04 08:06:29;;;;;;;60.30;28.23;;;;;;;1.29;92.32;100819.81;5061999;28;20265;-81
2022/12/04 08:08:57;;;;;;;58.43;29.53;;;;;;;1.28;92.87;100820.66;5064847;28;20201;-80
2022/12/04 08:11:26;;;;;;;65.20;31.10;;;;;;;1.27;93.18;100824.03;5060181;28;20213;-81
2022/12/04 08:13:55;;;;;;;70.83;31.80;;;;;;;1.27;93.17;100819.78;5060430;28;20252;-79
2022/12/04 08:16:22;;;;;;;66.33;29.60;;;;;;;1.33;93.07;100822.50;5057496;28;20234;-81
2022/12/04 08:18:48;;;;;;;59.70;30.10;;;;;;;1.32;92.44;100823.31;5054668;28;20237;-81
2022/12/04 08:21:18;;;;;;;63.83;31.70;;;;;;;1.33;92.77;100834.50;5054290;28;20235;-81
2022/12/04 08:23:45;;;;;;;57.00;28.73;;;;;;;1.37;92.11;100841.47;5054735;28;20229;-81
2022/12/04 08:26:11;;;;;;;61.23;30.07;;;;;;;1.31;92.90;100838.72;5054931;28;20210;-82
2022/12/04 08:28:39;;;;;;;71.07;31.97;;;;;;;1.27;93.10;100835.22;5054403;28;20225;-81
2022/12/04 08:31:08;;;;;;;64.40;29.80;;;;;;;1.31;92.77;100836.13;5054331;28;20213;-82
2022/12/04 08:33:35;;;;;;;70.87;30.20;;;;;;;1.33;92.89;100840.50;5054625;28;20222;-82
2022/12/04 08:36:01;;;;;;;59.33;29.23;;;;;;;1.33;93.10;100843.09;5054611;28;20235;-81
2022/12/04 08:38:28;;;;;;;60.80;30.80;;;;;;;1.26;93.16;100836.03;5054643;28;20229;-82
2022/12/04 08:40:54;;;;;;;63.10;29.97;;;;;;;1.29;93.53;100827.50;5054769;28;20217;-82
2022/12/04 08:43:21;;;;;;;63.57;30.80;;;;;;;1.28;93.54;100818.94;5054695;28;20237;-81
2022/12/04 08:45:55;;;;;;;72.50;30.40;;;;;;;1.34;92.99;100818.22;5055252;28;20210;-81
2022/12/04 08:48:22;;;;;;;68.13;31.17;;;;;;;1.34;92.50;100821.66;5054899;28;20201;-80
2022/12/04 08:50:49;;;;;;;64.93;31.67;;;;;;;1.31;93.13;100828.44;5054457;28;20207;-81
2022/12/04 08:53:15;;;;;;;69.27;32.10;;;;;;;1.33;92.70;100837.94;5055006;28;20230;-82
2022/12/04 08:55:42;;;;;;;65.73;31.60;;;;;;;1.29;93.62;100832.66;5055228;28;20312;-81
2022/12/04 08:58:08;;;;;;;65.53;30.60;;;;;;;1.24;93.17;100821.41;5055206;28;20221;-81
2022/12/04 09:00:35;;;;;;;65.60;32.20;;;;;;;1.26;93.89;100806.88;5055164;28;20206;-81
2022/12/04 09:03:01;;;;;;;61.80;31.17;;;;;;;1.34;93.23;100805.38;5054694;28;20231;-81
2022/12/04 09:05:29;;;;;;;67.70;31.63;;;;;;;1.39;92.80;100821.78;5055589;28;20210;-81
2022/12/04 09:07:56;;;;;;;60.90;30.80;;;;;;;1.38;92.81;100823.47;5056218;28;20206;-81
2022/12/04 09:10:23;;;;;;;64.47;30.40;;;;;;;1.36;93.22;100814.84;5057338;28;20283;-82
2022/12/04 09:12:49;;;;;;;66.30;31.00;;;;;;;1.37;93.20;100818.31;5059732;28;20242;-81
2022/12/04 09:15:16;;;;;;;63.57;30.50;;;;;;;1.38;93.08;100820.03;5059348;28;20206;-81
2022/12/04 09:17:42;;;;;;;69.90;31.53;;;;;;;1.35;93.65;100820.00;5067244;28;20237;-81
2022/12/04 09:20:09;;;;;;;67.33;31.63;;;;;;;1.41;93.20;100826.94;5058553;28;20212;-82
2022/12/04 09:22:37;;;;;;;66.83;31.70;;;;;;;1.41;93.30;100835.56;5058999;28;20322;-80
2022/12/04 09:25:05;;;;;;;69.97;32.17;;;;;;;1.38;92.90;100838.03;5058851;28;20238;-81
2022/12/04 09:27:35;;;;;;;64.57;31.30;;;;;;;1.38;92.42;100836.34;5057774;28;20213;-81
2022/12/04 09:30:02;;;;;;;70.07;30.87;;;;;;;1.41;92.23;100839.81;5058877;28;20209;-81
2022/12/04 09:32:28;;;;;;;73.60;32.27;;;;;;;1.40;92.97;100838.94;5059079;28;20225;-81
2022/12/04 09:34:55;;;;;;;68.20;31.07;;;;;;;1.43;93.07;100840.72;5058690;28;20590;-80
2022/12/04 09:37:21;;;;;;;69.13;32.20;;;;;;;1.42;93.39;100828.72;5058251;28;20233;-81
2022/12/04 09:39:49;;;;;;;63.07;31.87;;;;;;;1.45;93.02;100829.66;5057881;28;20212;-80
2022/12/04 09:42:28;;;;;;;66.97;29.33;;;;;;;1.42;93.37;100831.28;5057742;28;20294;-81
2022/12/04 09:45:03;;;;;;;67.47;32.17;;;;;;;1.46;93.23;100825.38;5059850;28;20210;-81
2022/12/04 09:47:33;;;;;;;78.28;42.75;;;;;;;1.55;92.95;100826.47;5056824;28;20423;-81
2022/12/04 09:50:04;;;;;;;68.53;34.33;;;;;;;1.55;92.96;100826.47;5057630;28;20237;-81
2022/12/04 09:52:46;;;;;;;69.03;33.73;;;;;;;1.58;93.01;100829.09;5056725;28;20215;-81
2022/12/04 09:55:22;;;;;;;65.90;32.83;;;;;;;1.57;92.26;100831.66;5056893;28;20205;-81
2022/12/04 09:57:51;;;;;;;67.45;33.92;;;;;;;1.58;91.90;100852.25;5055309;28;20455;-80
2022/12/04 10:00:19;;;;;;;66.53;32.63;;;;;;;1.56;92.35;100847.91;5053512;28;20697;-81
2022/12/04 10:02:51;;;;;;;67.33;31.77;;;;;;;1.49;92.65;100848.63;5055827;28;20233;-80
2022/12/04 10:05:23;;;;;;;65.80;30.43;;;;;;;1.44;92.74;100850.19;5056197;28;20224;-81
2022/12/04 10:08:00;;;;;;;65.70;30.43;;;;;;;1.47;92.74;100834.84;5056868;28;20214;-80
2022/12/04 10:10:36;;;;;;;66.53;30.37;;;;;;;1.49;92.69;100821.19;5054310;28;20668;-80
2022/12/04 10:13:18;;;;;;;64.63;31.00;;;;;;;1.48;93.14;100832.28;5056711;28;20225;-80
2022/12/04 10:15:52;;;;;;;61.57;30.70;;;;;;;1.46;92.91;100828.81;5055918;28;20203;-80
2022/12/04 10:18:28;;;;;;;64.33;31.30;;;;;;;1.51;92.77;100806.66;5055092;28;20243;-80
2022/12/04 10:21:19;;;;;;;62.07;29.97;;;;;;;1.44;92.55;100816.75;5056929;28;20205;-81
2022/12/04 10:23:58;;;;;;;62.20;31.50;;;;;;;1.42;93.66;100793.56;5052734;28;20221;-81
2022/12/04 10:26:33;;;;;;;68.07;33.97;;;;;;;1.50;93.63;100791.19;5054878;28;20195;-81
2022/12/04 10:29:02;;;;;;;64.30;32.73;;;;;;;1.47;93.12;100791.97;5056850;28;20201;-81
2022/12/04 10:31:30;;;;;;;66.37;30.57;;;;;;;1.46;93.60;100791.94;5056338;28;20607;-80
2022/12/04 10:34:02;;;;;;;70.73;31.43;;;;;;;1.51;93.53;100787.78;5057653;28;20217;-81
2022/12/04 10:36:32;;;;;;;60.33;31.40;;;;;;;1.51;93.59;100791.22;5047854;28;20198;-80
2022/12/04 10:39:02;;;;;;;69.13;31.87;;;;;;;1.49;93.51;100799.75;5048520;28;20218;-80
2022/12/04 10:41:38;;;;;;;72.63;32.60;;;;;;;1.54;93.15;100792.97;5046629;28;20287;-80
2022/12/04 10:44:05;;;;;;;62.03;30.63;;;;;;;1.55;92.74;100789.59;5055126;28;20217;-79
2022/12/04 10:46:34;;;;;;;63.93;31.67;;;;;;;1.57;93.44;100799.06;5057564;28;20202;-80
2022/12/04 10:49:05;;;;;;;63.73;30.47;;;;;;;1.57;92.99;100800.78;5057375;28;20202;-81
2022/12/04 10:51:38;;;;;;;70.33;31.77;;;;;;;1.56;93.25;100806.75;5055814;28;20198;-78
2022/12/04 10:54:16;;;;;;;67.43;31.27;;;;;;;1.47;93.16;100797.13;5055413;28;20237;-77
2022/12/04 10:56:52;;;;;;;59.20;30.50;;;;;;;1.58;93.71;100784.50;5054111;28;20209;-77
2022/12/04 10:59:19;;;;;;;59.53;31.30;;;;;;;1.61;93.54;100779.44;5053738;28;20226;-76
2022/12/04 11:01:45;;;;;;;57.83;29.00;;;;;;;1.63;93.97;100769.19;5053084;28;20198;-77
2022/12/04 11:04:22;;;;;;;62.10;30.27;;;;;;;1.59;92.83;100783.69;5053618;28;20229;-77
2022/12/04 11:06:49;;;;;;;63.93;29.33;;;;;;;1.59;93.52;100778.53;5052369;28;20225;-76
2022/12/04 11:09:22;;;;;;;61.10;29.47;;;;;;;1.59;93.44;100776.81;5053185;28;20240;-77
2022/12/04 11:11:49;;;;;;;68.60;30.33;;;;;;;1.60;93.21;100775.13;5050198;28;20351;-77
2022/12/04 11:14:18;;;;;;;61.70;29.40;;;;;;;1.56;92.88;100771.59;5053348;28;20237;-77
2022/12/04 11:16:48;;;;;;;67.87;31.23;;;;;;;1.53;93.64;100756.09;5050582;28;20201;-78
2022/12/04 11:19:24;;;;;;;61.07;29.50;;;;;;;1.54;93.82;100757.81;5051827;28;20277;-78
2022/12/04 11:21:52;;;;;;;60.90;29.07;;;;;;;1.53;93.75;100758.69;5052846;28;20207;-79
2022/12/04 11:24:22;;;;;;;68.13;31.00;;;;;;;1.56;93.51;100755.31;5052605;28;20300;-76
2022/12/04 11:26:49;;;;;;;60.53;30.47;;;;;;;1.54;93.36;100747.53;5052575;28;20202;-78
2022/12/04 11:29:20;;;;;;;67.13;31.73;;;;;;;1.57;93.79;100745.06;5052538;28;20193;-76
2022/12/04 11:31:53;;;;;;;61.60;31.53;;;;;;;1.59;93.64;100733.09;5052195;28;20211;-78
2022/12/04 11:34:22;;;;;;;57.70;29.20;;;;;;;1.62;93.52;100742.56;5052123;28;20222;-77
2022/12/04 11:36:53;;;;;;;67.53;30.90;;;;;;;1.59;93.85;100743.38;5033085;28;20580;-77